Observer — WDC5191 — position and weather

sailwx.info

Track history (hours):
 
Tides and Currents Weather Stations Pressure Air Temp Water Temp Dewpoint Dewpoint Depression Visibility Wind Speed Wind Dir Waves Ship Positions

Observer

Owner: Kirby Inland Marine LP, Houston, TX. More information available from US FCC via Universal Licensing System and Coast Guard Vessel Documentation Center.

Last reported at 2018-Apr-21 01:43 UTC. Time now 2018-Apr-21 07:54 UTC.
Position N 29°33' W 094°28'.

Length 32 m.

Type: Pleasure craft. MMSI: 367037280.

Date/timePositionNaut miles runAvg speedWind from/ knotsBaromVisibWave heightAir tempDewpointWater temp
2018-Apr-21 01:43N 29°33' W 094°28'1 7.0
2018-Apr-21 01:30N 29°34' W 094°27'4 8.2
2018-Apr-21 00:59N 29°36' W 094°22'5 9.6
2018-Apr-21 00:30N 29°38' W 094°18'5 9.9
2018-Apr-21 00:00N 29°40' W 094°13'5 9.8
2018-Apr-20 23:30N 29°43' W 094°08'510.0
2018-Apr-20 23:00N 29°46' W 094°03'5 9.3
2018-Apr-20 22:30N 29°49' W 093°59'4 8.4
2018-Apr-20 22:00N 29°52' W 093°56'5 9.3
2018-Apr-20 21:30N 29°56' W 093°53'3 6.9
2018-Apr-20 21:00N 29°59' W 093°53'3 6.1
2018-Apr-20 20:30N 29°60' W 093°57'0 0.0
2018-Apr-20 20:00N 29°60' W 093°57'0 0.0
2018-Apr-20 19:30N 29°60' W 093°57'0 0.0
2018-Apr-20 19:00N 29°60' W 093°57'0 0.0
2018-Apr-20 18:30N 29°60' W 093°57'0 0.0
2018-Apr-20 18:00N 29°60' W 093°57'0 0.0
2018-Apr-20 17:30N 29°60' W 093°57'0 0.0
2018-Apr-20 17:00N 29°60' W 093°57'0 0.0
2018-Apr-20 16:30N 29°60' W 093°57'0 0.0
2018-Apr-20 16:00N 29°60' W 093°57'0 0.0
2018-Apr-20 15:30N 29°60' W 093°57'0 0.0
2018-Apr-20 15:00N 29°60' W 093°57'0 0.0
2018-Apr-20 14:30N 29°60' W 093°57'0 0.0
2018-Apr-20 14:00N 29°60' W 093°57'0 0.0
2018-Apr-20 13:30N 29°60' W 093°57'0 0.0
2018-Apr-20 13:00N 29°60' W 093°57'0 0.1
2018-Apr-20 12:30N 29°60' W 093°57'2 3.7
2018-Apr-20 12:00N 30°01' W 093°59'4 8.1
2018-Apr-20 11:30N 30°04' W 094°02'3 5.9
2018-Apr-20 11:00N 30°05' W 094°05'0 0.0
2018-Apr-20 10:30N 30°05' W 094°05'0 0.0
2018-Apr-20 10:00N 30°05' W 094°05'0 0.0
2018-Apr-20 09:30N 30°05' W 094°05'0 0.0
2018-Apr-20 09:00N 30°05' W 094°05'0 0.0
2018-Apr-20 08:30N 30°05' W 094°05'0 0.0
2018-Apr-20 08:00N 30°05' W 094°05'0 0.0
2018-Apr-20 07:30N 30°05' W 094°05'0 0.0
2018-Apr-20 07:00N 30°05' W 094°05'0 0.0
2018-Apr-20 06:30N 30°05' W 094°05'0 0.0
2018-Apr-20 06:00N 30°05' W 094°05'0 0.0
2018-Apr-20 05:30N 30°05' W 094°05'0 0.0
2018-Apr-20 05:00N 30°05' W 094°05'0 0.0
2018-Apr-20 04:30N 30°05' W 094°05'0 0.0
2018-Apr-20 04:00N 30°05' W 094°05'0 0.0
2018-Apr-20 03:29N 30°05' W 094°05'0 0.0
2018-Apr-20 03:00N 30°05' W 094°05'0 0.0
2018-Apr-20 02:30N 30°05' W 094°05'0 0.0
2018-Apr-20 02:00N 30°05' W 094°05'0 0.0
2018-Apr-20 01:30N 30°05' W 094°05'0 0.0
2018-Apr-20 01:00N 30°05' W 094°05'0 0.0
2018-Apr-20 00:28N 30°05' W 094°05'0 0.0
2018-Apr-20 00:00N 30°05' W 094°05'0 0.0
2018-Apr-19 23:30N 30°05' W 094°05'0 0.0
2018-Apr-19 23:00N 30°05' W 094°05'0 0.0
2018-Apr-19 22:30N 30°05' W 094°05'2 5.1
2018-Apr-19 22:00N 30°04' W 094°02'4 7.7
2018-Apr-19 21:30N 30°01' W 093°60'4 8.1
2018-Apr-19 21:00N 29°59' W 093°55'4 7.6
2018-Apr-19 20:30N 29°58' W 093°51'5 9.2
2018-Apr-19 20:00N 29°54' W 093°54'4 8.7
2018-Apr-19 19:30N 29°50' W 093°57'4 8.1
2018-Apr-19 19:00N 29°46' W 093°56'3 6.8
2018-Apr-19 18:30N 29°44' W 093°53'0 0.0
2018-Apr-19 18:00N 29°44' W 093°53'0 0.0
2018-Apr-19 17:30N 29°44' W 093°53'0 0.0
2018-Apr-19 17:00N 29°44' W 093°53'0 0.0
2018-Apr-19 16:30N 29°44' W 093°53'2 4.5
2018-Apr-19 16:00N 29°46' W 093°55'4 8.9
2018-Apr-19 15:30N 29°50' W 093°57'4 8.9
2018-Apr-19 15:00N 29°53' W 093°55'4 8.6
2018-Apr-19 14:30N 29°57' W 093°52'3 7.0
2018-Apr-19 14:00N 29°59' W 093°55'4 7.3
2018-Apr-19 13:30N 30°01' W 093°59'3 6.8
2018-Apr-19 13:00N 30°03' W 094°02'3 0.4
2018-Apr-19 03:22N 30°05' W 094°05'0 0.0
2018-Apr-19 03:00N 30°05' W 094°05'0 0.0
2018-Apr-19 02:30N 30°05' W 094°05'2 3.0
2018-Apr-19 02:00N 30°04' W 094°03'2 3.3
2018-Apr-19 01:30N 30°05' W 094°05'0 0.5
2018-Apr-19 01:00N 30°05' W 094°05'0 0.3
2018-Apr-19 00:30N 30°05' W 094°05'0 0.4
2018-Apr-19 00:00N 30°05' W 094°05'0 0.0
2018-Apr-18 23:30N 30°05' W 094°05'0 0.0
2018-Apr-18 23:00N 30°05' W 094°05'0 0.0
2018-Apr-18 22:30N 30°05' W 094°05'0 0.0
2018-Apr-18 22:00N 30°05' W 094°05'0 0.0
2018-Apr-18 21:30N 30°05' W 094°05'0 0.0
2018-Apr-18 21:00N 30°05' W 094°05'0 0.0
2018-Apr-18 20:30N 30°05' W 094°05'0 0.0
2018-Apr-18 19:59N 30°05' W 094°05'0 0.0
2018-Apr-18 19:28N 30°05' W 094°05'0 0.0
2018-Apr-18 19:00N 30°05' W 094°05'0 0.0
2018-Apr-18 18:29N 30°05' W 094°05'0 0.0
2018-Apr-18 18:00N 30°05' W 094°05'0 0.0
2018-Apr-18 17:29N 30°05' W 094°05'0 0.0
2018-Apr-18 17:00N 30°05' W 094°05'0 0.0
2018-Apr-18 16:30N 30°05' W 094°05'0 0.0
2018-Apr-18 16:00N 30°05' W 094°05'0 0.0
2018-Apr-18 15:30N 30°05' W 094°05'0 0.0
2018-Apr-18 14:57N 30°05' W 094°05'0 0.0
2018-Apr-18 14:30N 30°05' W 094°05'0 0.0
2018-Apr-18 14:00N 30°05' W 094°05'0 0.0
2018-Apr-18 13:30N 30°05' W 094°05'0 0.0
2018-Apr-18 13:00N 30°05' W 094°05'0 0.0
2018-Apr-18 12:30N 30°05' W 094°05'0 0.0
2018-Apr-18 12:00N 30°05' W 094°05'0 0.0
2018-Apr-18 11:30N 30°05' W 094°05'0 0.0
2018-Apr-18 10:58N 30°05' W 094°05'0 0.0
2018-Apr-18 10:30N 30°05' W 094°05'0 0.0
2018-Apr-18 10:00N 30°05' W 094°05'0 0.0
2018-Apr-18 09:30N 30°05' W 094°05'0 0.0
2018-Apr-18 09:00N 30°05' W 094°05'0 0.0
2018-Apr-18 08:30N 30°05' W 094°05'0 0.0
2018-Apr-18 08:00N 30°05' W 094°05'0 0.0
2018-Apr-18 07:29N 30°05' W 094°05'0 0.0
2018-Apr-18 07:00N 30°05' W 094°05'0 0.0
2018-Apr-18 06:30N 30°05' W 094°05'0 0.0
2018-Apr-18 05:34N 30°05' W 094°05'0 0.0
2018-Apr-18 05:24N 30°05' W 094°05'0 0.0
2018-Apr-18 05:00N 30°05' W 094°05'0 0.0
2018-Apr-18 04:30N 30°05' W 094°05'0 0.0
2018-Apr-18 04:00N 30°05' W 094°05'0 0.0
2018-Apr-18 03:30N 30°05' W 094°05'0 0.0
2018-Apr-18 03:00N 30°05' W 094°05'0 0.0
2018-Apr-18 02:30N 30°05' W 094°05'1 2.5
2018-Apr-18 02:00N 30°05' W 094°04'4 8.9
2018-Apr-18 01:30N 30°01' W 094°01'5 9.3
2018-Apr-18 01:00N 29°59' W 093°56'4 8.3
2018-Apr-18 00:30N 29°57' W 093°52'5 9.9
2018-Apr-18 00:00N 29°53' W 093°55'4 8.6
2018-Apr-17 23:30N 29°49' W 093°58'3 6.1
2018-Apr-17 23:00N 29°48' W 094°00'5 9.4
2018-Apr-17 22:30N 29°45' W 094°05'5 9.3
2018-Apr-17 22:00N 29°42' W 094°09'5 9.3
2018-Apr-17 21:29N 29°40' W 094°14'5 9.6
2018-Apr-17 21:00N 29°38' W 094°19'5 9.2
2018-Apr-17 20:30N 29°36' W 094°23'25 6.7
2018-Apr-17 16:44N 29°27' W 094°51'2 8.8
2018-Apr-17 16:29N 29°29' W 094°52'4 8.6
2018-Apr-17 16:00N 29°32' W 094°54'4 8.4
2018-Apr-17 15:30N 29°36' W 094°57'4 8.7
2018-Apr-17 15:00N 29°40' W 094°58'4 7.8
2018-Apr-17 14:29N 29°43' W 095°01'4 7.8
2018-Apr-17 14:00N 29°46' W 095°04'2 3.8
2018-Apr-17 13:30N 29°46' W 095°07'0 0.0
2018-Apr-17 13:00N 29°46' W 095°07'  
Track history (hours):
 
Tides and Currents Weather Stations Pressure Air Temp Water Temp Dewpoint Dewpoint Depression Visibility Wind Speed Wind Dir Waves Ship Positions

Observer

Owner: Kirby Inland Marine LP, Houston, TX. More information available from US FCC via Universal Licensing System and Coast Guard Vessel Documentation Center.

Last reported at 2018-Apr-21 01:43 UTC. Time now 2018-Apr-21 07:54 UTC.
Position N 29°33' W 094°28'.

Length 32 m.

Type: Pleasure craft. MMSI: 367037280.

Date/timePositionNaut miles runAvg speedWind from/ knotsBaromVisibWave heightAir tempDewpointWater temp
2018-Apr-21 01:43N 29°33' W 094°28'1 7.0
2018-Apr-21 01:30N 29°34' W 094°27'4 8.2
2018-Apr-21 00:59N 29°36' W 094°22'5 9.6
2018-Apr-21 00:30N 29°38' W 094°18'5 9.9
2018-Apr-21 00:00N 29°40' W 094°13'5 9.8
2018-Apr-20 23:30N 29°43' W 094°08'510.0
2018-Apr-20 23:00N 29°46' W 094°03'5 9.3
2018-Apr-20 22:30N 29°49' W 093°59'4 8.4
2018-Apr-20 22:00N 29°52' W 093°56'5 9.3
2018-Apr-20 21:30N 29°56' W 093°53'3 6.9
2018-Apr-20 21:00N 29°59' W 093°53'3 6.1
2018-Apr-20 20:30N 29°60' W 093°57'0 0.0
2018-Apr-20 20:00N 29°60' W 093°57'0 0.0
2018-Apr-20 19:30N 29°60' W 093°57'0 0.0
2018-Apr-20 19:00N 29°60' W 093°57'0 0.0
2018-Apr-20 18:30N 29°60' W 093°57'0 0.0
2018-Apr-20 18:00N 29°60' W 093°57'0 0.0
2018-Apr-20 17:30N 29°60' W 093°57'0 0.0
2018-Apr-20 17:00N 29°60' W 093°57'0 0.0
2018-Apr-20 16:30N 29°60' W 093°57'0 0.0
2018-Apr-20 16:00N 29°60' W 093°57'0 0.0
2018-Apr-20 15:30N 29°60' W 093°57'0 0.0
2018-Apr-20 15:00N 29°60' W 093°57'0 0.0
2018-Apr-20 14:30N 29°60' W 093°57'0 0.0
2018-Apr-20 14:00N 29°60' W 093°57'0 0.0
2018-Apr-20 13:30N 29°60' W 093°57'0 0.0
2018-Apr-20 13:00N 29°60' W 093°57'0 0.1
2018-Apr-20 12:30N 29°60' W 093°57'2 3.7
2018-Apr-20 12:00N 30°01' W 093°59'4 8.1
2018-Apr-20 11:30N 30°04' W 094°02'3 5.9
2018-Apr-20 11:00N 30°05' W 094°05'0 0.0
2018-Apr-20 10:30N 30°05' W 094°05'0 0.0
2018-Apr-20 10:00N 30°05' W 094°05'0 0.0
2018-Apr-20 09:30N 30°05' W 094°05'0 0.0
2018-Apr-20 09:00N 30°05' W 094°05'0 0.0
2018-Apr-20 08:30N 30°05' W 094°05'0 0.0
2018-Apr-20 08:00N 30°05' W 094°05'0 0.0
2018-Apr-20 07:30N 30°05' W 094°05'0 0.0
2018-Apr-20 07:00N 30°05' W 094°05'0 0.0
2018-Apr-20 06:30N 30°05' W 094°05'0 0.0
2018-Apr-20 06:00N 30°05' W 094°05'0 0.0
2018-Apr-20 05:30N 30°05' W 094°05'0 0.0
2018-Apr-20 05:00N 30°05' W 094°05'0 0.0
2018-Apr-20 04:30N 30°05' W 094°05'0 0.0
2018-Apr-20 04:00N 30°05' W 094°05'0 0.0
2018-Apr-20 03:29N 30°05' W 094°05'0 0.0
2018-Apr-20 03:00N 30°05' W 094°05'0 0.0
2018-Apr-20 02:30N 30°05' W 094°05'0 0.0
2018-Apr-20 02:00N 30°05' W 094°05'0 0.0
2018-Apr-20 01:30N 30°05' W 094°05'0 0.0
2018-Apr-20 01:00N 30°05' W 094°05'0 0.0
2018-Apr-20 00:28N 30°05' W 094°05'0 0.0
2018-Apr-20 00:00N 30°05' W 094°05'0 0.0
2018-Apr-19 23:30N 30°05' W 094°05'0 0.0
2018-Apr-19 23:00N 30°05' W 094°05'0 0.0
2018-Apr-19 22:30N 30°05' W 094°05'2 5.1
2018-Apr-19 22:00N 30°04' W 094°02'4 7.7
2018-Apr-19 21:30N 30°01' W 093°60'4 8.1
2018-Apr-19 21:00N 29°59' W 093°55'4 7.6
2018-Apr-19 20:30N 29°58' W 093°51'5 9.2
2018-Apr-19 20:00N 29°54' W 093°54'4 8.7
2018-Apr-19 19:30N 29°50' W 093°57'4 8.1
2018-Apr-19 19:00N 29°46' W 093°56'3 6.8
2018-Apr-19 18:30N 29°44' W 093°53'0 0.0
2018-Apr-19 18:00N 29°44' W 093°53'0 0.0
2018-Apr-19 17:30N 29°44' W 093°53'0 0.0
2018-Apr-19 17:00N 29°44' W 093°53'0 0.0
2018-Apr-19 16:30N 29°44' W 093°53'2 4.5
2018-Apr-19 16:00N 29°46' W 093°55'4 8.9
2018-Apr-19 15:30N 29°50' W 093°57'4 8.9
2018-Apr-19 15:00N 29°53' W 093°55'4 8.6
2018-Apr-19 14:30N 29°57' W 093°52'3 7.0
2018-Apr-19 14:00N 29°59' W 093°55'4 7.3
2018-Apr-19 13:30N 30°01' W 093°59'3 6.8
2018-Apr-19 13:00N 30°03' W 094°02'3 0.4
2018-Apr-19 03:22N 30°05' W 094°05'0 0.0
2018-Apr-19 03:00N 30°05' W 094°05'0 0.0
2018-Apr-19 02:30N 30°05' W 094°05'2 3.0
2018-Apr-19 02:00N 30°04' W 094°03'2 3.3
2018-Apr-19 01:30N 30°05' W 094°05'0 0.5
2018-Apr-19 01:00N 30°05' W 094°05'0 0.3
2018-Apr-19 00:30N 30°05' W 094°05'0 0.4
2018-Apr-19 00:00N 30°05' W 094°05'0 0.0
2018-Apr-18 23:30N 30°05' W 094°05'0 0.0
2018-Apr-18 23:00N 30°05' W 094°05'0 0.0
2018-Apr-18 22:30N 30°05' W 094°05'0 0.0
2018-Apr-18 22:00N 30°05' W 094°05'0 0.0
2018-Apr-18 21:30N 30°05' W 094°05'0 0.0
2018-Apr-18 21:00N 30°05' W 094°05'0 0.0
2018-Apr-18 20:30N 30°05' W 094°05'0 0.0
2018-Apr-18 19:59N 30°05' W 094°05'0 0.0
2018-Apr-18 19:28N 30°05' W 094°05'0 0.0
2018-Apr-18 19:00N 30°05' W 094°05'0 0.0
2018-Apr-18 18:29N 30°05' W 094°05'0 0.0
2018-Apr-18 18:00N 30°05' W 094°05'0 0.0
2018-Apr-18 17:29N 30°05' W 094°05'0 0.0
2018-Apr-18 17:00N 30°05' W 094°05'0 0.0
2018-Apr-18 16:30N 30°05' W 094°05'0 0.0
2018-Apr-18 16:00N 30°05' W 094°05'0 0.0
2018-Apr-18 15:30N 30°05' W 094°05'0 0.0
2018-Apr-18 14:57N 30°05' W 094°05'0 0.0
2018-Apr-18 14:30N 30°05' W 094°05'0 0.0
2018-Apr-18 14:00N 30°05' W 094°05'0 0.0
2018-Apr-18 13:30N 30°05' W 094°05'0 0.0
2018-Apr-18 13:00N 30°05' W 094°05'0 0.0
2018-Apr-18 12:30N 30°05' W 094°05'0 0.0
2018-Apr-18 12:00N 30°05' W 094°05'0 0.0
2018-Apr-18 11:30N 30°05' W 094°05'0 0.0
2018-Apr-18 10:58N 30°05' W 094°05'0 0.0
2018-Apr-18 10:30N 30°05' W 094°05'0 0.0
2018-Apr-18 10:00N 30°05' W 094°05'0 0.0
2018-Apr-18 09:30N 30°05' W 094°05'0 0.0
2018-Apr-18 09:00N 30°05' W 094°05'0 0.0
2018-Apr-18 08:30N 30°05' W 094°05'0 0.0
2018-Apr-18 08:00N 30°05' W 094°05'0 0.0
2018-Apr-18 07:29N 30°05' W 094°05'0 0.0
2018-Apr-18 07:00N 30°05' W 094°05'0 0.0
2018-Apr-18 06:30N 30°05' W 094°05'0 0.0
2018-Apr-18 05:34N 30°05' W 094°05'0 0.0
2018-Apr-18 05:24N 30°05' W 094°05'0 0.0
2018-Apr-18 05:00N 30°05' W 094°05'0 0.0
2018-Apr-18 04:30N 30°05' W 094°05'0 0.0
2018-Apr-18 04:00N 30°05' W 094°05'0 0.0
2018-Apr-18 03:30N 30°05' W 094°05'0 0.0
2018-Apr-18 03:00N 30°05' W 094°05'0 0.0
2018-Apr-18 02:30N 30°05' W 094°05'1 2.5
2018-Apr-18 02:00N 30°05' W 094°04'4 8.9
2018-Apr-18 01:30N 30°01' W 094°01'5 9.3
2018-Apr-18 01:00N 29°59' W 093°56'4 8.3
2018-Apr-18 00:30N 29°57' W 093°52'5 9.9
2018-Apr-18 00:00N 29°53' W 093°55'4 8.6
2018-Apr-17 23:30N 29°49' W 093°58'3 6.1
2018-Apr-17 23:00N 29°48' W 094°00'5 9.4
2018-Apr-17 22:30N 29°45' W 094°05'5 9.3
2018-Apr-17 22:00N 29°42' W 094°09'5 9.3
2018-Apr-17 21:29N 29°40' W 094°14'5 9.6
2018-Apr-17 21:00N 29°38' W 094°19'5 9.2
2018-Apr-17 20:30N 29°36' W 094°23'25 6.7
2018-Apr-17 16:44N 29°27' W 094°51'2 8.8
2018-Apr-17 16:29N 29°29' W 094°52'4 8.6
2018-Apr-17 16:00N 29°32' W 094°54'4 8.4
2018-Apr-17 15:30N 29°36' W 094°57'4 8.7
2018-Apr-17 15:00N 29°40' W 094°58'4 7.8
2018-Apr-17 14:29N 29°43' W 095°01'4 7.8
2018-Apr-17 14:00N 29°46' W 095°04'2 3.8
2018-Apr-17 13:30N 29°46' W 095°07'0 0.0
2018-Apr-17 13:00N 29°46' W 095°07'  

Dump ship's entire track history